Aeroporto :
LOGIN :

Iscrizione | Disclaimer

   EN    FR    IT 

 










Sommario :    VFR   VFR Marginale   IFR   IFR Intensivo   IFR Molto Intensivo
Visibilità : 
Base nubi : 
>= 8 km
>= 3000ft
5 / 8 km
1000 / 3000 ft
1500m / 5 km
500 / 1000 ft
800 / 1500m
200 / 500 ft
< 800m
< 200 ft
Simboli :   Temporali  Nebbia  Neve Forte  Precipitazioni Forti  Vento > 20 kt
SIGMETs :   Varie  Temporali  Ghiacco  Turbolenza  Onda orograficha  Ceneri Vulcaniche







- Altitudine del aeroporto : 768 ft
- Codice IATA : MXP


LIMC - Milano Malpensa

ULTIMO METAR :
  • 160350Z 01003KT CAVOK 13/12 Q1014 NOSIG

METARs OBSOLETI :
  • 160320Z 01003KT 9999 BCFG NSC 14/13 Q1014 NOSIG
  • 160250Z 03002KT 9999 BCFG NSC 13/13 Q1014 NOSIG
  • 160220Z 01002KT 9999 MIFG NSC 15/14 Q1014 NOSIG
  • 160150Z VRB02KT 9999 R35R/P1500N R17L/1300U R35L/P1500N MIFG NSC 15/14 Q1014 NOSIG

TAF TAF LIMC
Valido dal 16 a 00 ore il 17 a 06 ore UTC


152300Z 1600/1706 VRB05KT CAVOK
TEMPO 1615/1621 TSRA SCT010CB
Nessun NOTAM noto per questo aeroporto.



MetMap, La meteo Aeronautica in un colpo d'occhio ! - Copyright ORBIFLY Dicembre 2007 - Disclaimer

ORBIFLY MET'MAP TEAM :

Programmazione e sviluppo : Alexandra Zaïnal
Concezione e sviluppo : Baudouin d'Aumeries
Co-Programmazione e sviluppo : Marc-Olivier Méhu
Supporto tecnico e logistico : Manuel Goepfert
Aiuto per la traduzione : Arnaldo La Scala

Contatto : metmap@orbifly.com




FONTI E CREDITI :

   NOAA